• Join FlightAware (Why Join?)
  • Login
  • US Flag 
01:03PM EDT


 

Airport Tracker/Info


-or-


 

Live Flight TrackerFlight Track Log ✈ SWA2975 ✈ 07-Jul-2013 ✈ KDEN - KSLC

Flight Track Log - Related Links

Times and Time Zones

All times are in EDT time to prevent confusion due to time zone crossing. See the SWA2975 flight status page for this flight to view local times or setup timezone preferences in your user account.

Time Position Orientation Groundspeed Altitude Reporting Facility
EDT Latitude Longitude Course Direction KTS MPH feet Rate Location/Type
04:01PM 39.8640 -104.6820 258° West 15 17  Level FlightAware
04:02PM 39.8630 -104.6840 237° Southwest 31 36 840 Level FlightAware
04:02PM 39.8620 -104.6840 180° South 34 39 960 Level FlightAware
04:03PM 39.8600 -104.6840 180° South 20 23 1,020 Level FlightAware
04:03PM 39.8580 -104.6840 180° South 20 23 1,080 Level FlightAware
04:03PM 39.8550 -104.6840 180° South 21 24 1,200 Level FlightAware
04:04PM 39.8530 -104.6840 180° South 21 24 1,320 Level FlightAware
04:04PM 39.8520 -104.6850 218° Southwest 15 17 1,440 Level FlightAware
04:04PM 39.8520 -104.6880 270° West 20 23 1,560 Level FlightAware
04:05PM 39.8520 -104.6930 270° West 20 23 1,740 Level FlightAware
04:07PM 39.8540 -104.6970 303° West 55 63 2,280 Level FlightAware
04:08PM 39.8900 -104.6960 North 196 226 5,800 5,880 Climbing FlightAware
04:08PM 39.9060 -104.7000 349° North 201 231 6,600 1,860 Climbing FlightAware
04:08PM 39.9140 -104.7100 316° Northwest 221 254 6,700 840 Climbing FlightAware
04:09PM 39.9180 -104.7320 283° West 240 276 7,000 1,200 Climbing FlightAware
04:09PM 39.9190 -104.7740 272° West 279 321 7,600 1,680 Climbing FlightAware
04:09PM 39.9200 -104.8200 272° West 299 344 8,500 2,400 Climbing FlightAware
04:10PM 39.9200 -104.8520 270° West 296 341 9,400 2,040 Climbing FlightAware
04:10PM 39.9230 -104.8950 275° West 300 345 9,900 720 Climbing FlightAware
04:10PM 39.9260 -104.9220 278° West 300 345 9,900 720 Level FlightAware
04:11PM 39.9330 -104.9680 281° West 302 348 10,600 2,520 Climbing FlightAware
04:12PM 39.9470 -105.0790 279° West 298 343 13,700 3,240 Climbing FlightAware
04:13PM 39.9580 -105.1580 280° West 304 350 15,700 2,700 Climbing FlightAware
04:13PM 39.9680 -105.2300 280° West 308 354 17,500 2,460 Climbing FlightAware
04:14PM 39.9640 -105.3170 267° West 317 365 19,200 2,340 Climbing FlightAware
04:15PM 39.9560 -105.3930 262° West 323 372 20,800 2,340 Climbing FlightAware
04:15PM 39.9480 -105.4780 263° West 328 377 22,500 1,560 Climbing FlightAware
04:16PM 39.9400 -105.5600 263° West 355 409 23,000 360 Climbing FlightAware
04:17PM 39.9300 -105.6440 261° West 390 449 23,000 360 Level FlightAware
04:17PM 39.9180 -105.7580 262° West 411 473 23,600 1,320 Climbing FlightAware
04:18PM 39.9070 -105.8570 262° West 413 475 25,000 1,860 Climbing FlightAware
04:19PM 39.8950 -105.9580 261° West 417 480 26,200 1,680 Climbing FlightAware
04:20PM 39.8830 -106.0740 262° West 420 483 27,500 1,320 Climbing FlightAware
04:20PM 39.8780 -106.1800 267° West 434 499 28,200 1,080 Climbing FlightAware
04:21PM 39.8880 -106.2830 277° West 441 507 29,000 1,320 Climbing FlightAware
04:22PM 39.8990 -106.3940 277° West 442 509 30,000 1,620 Climbing FlightAware
04:22PM 39.9090 -106.5030 277° West 436 502 31,300 1,620 Climbing FlightAware
04:23PM 39.9190 -106.6160 277° West 431 496 32,400 1,620 Climbing FlightAware
04:24PM 39.9200 -106.7560 271° West 417 480 34,000 1,620 Climbing FlightAware
04:25PM 39.9140 -106.8600 266° West 408 470 35,000 1,320 Climbing FlightAware
04:25PM 39.9300 -106.9630 281° West 419 482 35,900 720 Climbing FlightAware
04:26PM 39.9630 -107.0450 298° West 434 499 36,000 60 Climbing FlightAware
04:27PM 40.0020 -107.1410 298° West 442 509 36,000  Level FlightAware
04:27PM 40.0520 -107.2340 305° West 453 521 36,000  Level FlightAware
04:28PM 40.1100 -107.3260 310° West 453 521 36,000  Level FlightAware
04:29PM 40.1600 -107.4060 309° West 452 520 36,000  Level FlightAware
04:30PM 40.2200 -107.5000 310° West 439 505 36,000  Level FlightAware
04:30PM 40.2660 -107.5850 305° West 414 476 36,000  Level FlightAware
04:31PM 40.3060 -107.6930 296° West 414 476 36,000  Level FlightAware
04:32PM 40.3390 -107.7840 295° West 421 484 36,000  Level FlightAware
04:32PM 40.3790 -107.8910 296° West 423 487 36,000  Level FlightAware
04:33PM 40.4160 -107.9920 296° West 426 490 36,000  Level FlightAware
04:34PM 40.4450 -108.0710 296° West 428 493 36,000  Level FlightAware
04:35PM 40.4870 -108.1850 296° West 428 493 36,000  Level FlightAware
04:35PM 40.5210 -108.2790 295° West 427 491 36,000  Level FlightAware
04:36PM 40.5580 -108.3820 295° West 426 490 36,000  Level FlightAware
04:37PM 40.5930 -108.4770 296° West 425 489 36,000  Level FlightAware
04:37PM 40.6300 -108.5790 296° West 424 488 36,000  Level FlightAware
04:38PM 40.6650 -108.6760 295° West 422 486 36,000  Level FlightAware
04:39PM 40.6980 -108.7690 295° West 421 484 36,000  Level FlightAware
04:39PM 40.7350 -108.8720 295° West 423 487 36,000  Level FlightAware
04:40PM 40.7670 -108.9660 294° West 422 486 36,000  Level FlightAware
04:41PM 40.7940 -109.0560 292° West 423 487 36,000  Level FlightAware
04:42PM 40.8290 -109.1720 292° West 423 487 36,000  Level FlightAware
04:42PM 40.8590 -109.2680 292° West 421 484 36,000  Level FlightAware
04:43PM 40.8910 -109.3700 293° West 421 484 36,000  Level FlightAware
04:44PM 40.9220 -109.4660 293° West 419 482 36,000  Level FlightAware
04:44PM 40.9490 -109.5490 293° West 417 480 36,000  Level FlightAware
04:45PM 40.9770 -109.6380 293° West 418 481 36,000  Level FlightAware
04:46PM 41.0070 -109.7320 293° West 416 479 36,000  Level FlightAware
04:46PM 41.0370 -109.8260 293° West 418 481 36,000  Level FlightAware
04:47PM 41.0700 -109.9220 295° West 421 484 36,000  Level FlightAware
04:47PM 41.1000 -110.0040 296° West 421 484 36,000 -480 Level FlightAware
04:48PM 41.1370 -110.1050 296° West 421 484 35,400 -840 Descending FlightAware
04:49PM 41.1710 -110.2000 295° West 427 491 34,800 -600 Descending FlightAware
04:49PM 41.1930 -110.2640 295° West 427 491 34,700 -120 Descending FlightAware
04:50PM 41.2260 -110.3570 295° West 427 491 34,700  Level FlightAware
04:51PM 41.2530 -110.4340 295° West 427 491 34,700  Level FlightAware
04:52PM 41.2850 -110.5270 295° West 427 491 34,700 -1,500 Level FlightAware
04:52PM 41.3390 -110.6790 295° West 427 491 32,600 -2,040 Descending FlightAware
04:53PM 41.3780 -110.7890 295° West 424 488 31,800 -1,080 Descending FlightAware
04:54PM 41.4140 -110.8920 295° West 427 491 31,100 -900 Descending FlightAware
04:54PM 41.4430 -110.9770 294° West 423 487 30,700 -660 Descending FlightAware
04:55PM 41.4800 -111.0850 295° West 421 484 30,200 -840 Descending FlightAware
04:56PM 41.5140 -111.1850 294° West 415 478 29,500 -1,080 Descending FlightAware
04:56PM 41.5490 -111.2860 295° West 412 474 28,700 -1,260 Descending FlightAware
04:57PM 41.5790 -111.3740 295° West 405 466 27,800 -1,740 Descending FlightAware
04:58PM 41.6100 -111.4660 294° West 397 457 26,400 -2,160 Descending FlightAware
04:59PM 41.6430 -111.5630 295° West 392 451 24,800 -2,160 Descending FlightAware
04:59PM 41.6730 -111.6530 294° West 385 443 23,400 -2,100 Descending FlightAware
05:00PM 41.7040 -111.7460 294° West 376 433 21,900 -2,280 Descending FlightAware
05:00PM 41.7070 -111.7710 279° West 366 421 21,400 -3,180 Descending FlightAware
05:01PM 41.6930 -111.8350 254° West 362 417 19,700 -3,420 Descending FlightAware
05:01PM 41.6490 -111.9050 230° Southwest 367 422 17,300 -3,120 Descending FlightAware
05:02PM 41.6030 -111.9790 230° Southwest 357 411 15,400 -1,680 Descending FlightAware
05:03PM 41.5530 -112.0440 224° Southwest 320 368 14,900 -420 Descending FlightAware
05:03PM 41.5330 -112.0500 193° South 312 359 15,000  Climbing FlightAware
05:04PM 41.4790 -112.0570 186° South 304 350 14,900 -840 Descending FlightAware
05:04PM 41.4220 -112.0690 189° South 299 344 13,900 -1,500 Descending FlightAware
05:05PM 41.3580 -112.0650 177° South 295 339 12,800 -1,320 Descending FlightAware
05:06PM 41.3020 -112.0570 174° South 294 338 12,000 -1,080 Descending FlightAware
05:07PM 41.2410 -112.0500 175° South 296 341 11,300 -840 Descending FlightAware
05:07PM 41.2080 -112.0580 190° South 275 316 11,000 -480 Descending FlightAware
05:07PM 41.1970 -112.0720 224° Southwest 259 298 11,000  Level FlightAware
05:07PM 41.1910 -112.0960 252° West 248 285 11,000  Level FlightAware
05:08PM 41.1880 -112.1440 265° West 240 276 11,000  Level FlightAware
05:09PM 41.1850 -112.2070 266° West 242 278 11,000  Level FlightAware
05:09PM 41.1830 -112.2710 268° West 238 274 11,000  Level FlightAware
05:10PM 41.1870 -112.2880 287° West 245 282 11,000  Level FlightAware
05:10PM 41.1970 -112.3020 314° West 252 290 11,000  Level FlightAware
05:10PM 41.2240 -112.3150 340° North 265 305 11,000  Level FlightAware
05:11PM 41.2690 -112.2620 42° Northeast 267 307 11,000  Level FlightAware
05:12PM 41.2550 -112.2010 107° East 264 304 11,000  Level FlightAware
05:13PM 41.2340 -112.1300 111° Southeast 264 304 11,000  Level FlightAware
05:13PM 41.2100 -112.0700 118° Southeast 252 290 11,000  Level FlightAware
05:14PM 41.1950 -112.0630 161° South 245 282 11,000  Level FlightAware
05:14PM 41.1810 -112.0640 183° South 243 280 11,000  Level FlightAware
05:14PM 41.1640 -112.0720 200° South 239 275 11,000  Level FlightAware
05:14PM 41.1540 -112.0830 220° Southwest 238 274 11,000  Level FlightAware
05:14PM 41.1450 -112.1030 239° Southwest 238 274 11,000  Level FlightAware
05:15PM 41.1430 -112.1200 261° West 241 277 11,000  Level FlightAware
05:15PM 41.1560 -112.1770 287° West 249 287 11,000  Level FlightAware
05:16PM 41.1740 -112.2320 294° West 243 280 11,000  Level FlightAware
05:17PM 41.1800 -112.2910 278° West 241 277 11,000  Level FlightAware
05:17PM 41.1780 -112.3020 256° West 236 272 11,000  Level FlightAware
05:17PM 41.1640 -112.3200 224° Southwest 234 269 11,000  Level FlightAware
05:17PM 41.1560 -112.3220 191° South 237 273 11,000  Level FlightAware
05:18PM 41.1320 -112.3110 161° South 248 285 11,000  Level FlightAware
05:18PM 41.0930 -112.2820 151° Southeast 250 288 11,000  Level FlightAware
05:19PM 41.0490 -112.2500 151° Southeast 250 288 11,000  Level FlightAware
05:20PM 41.0110 -112.2050 138° Southeast 257 296 11,000  Level FlightAware
05:20PM 40.9810 -112.1590 131° Southeast 262 302 11,000  Level FlightAware
05:21PM 40.9580 -112.1270 134° Southeast 253 291 11,000  Level FlightAware
05:21PM 40.9410 -112.1190 160° South 248 285 11,000  Level FlightAware
05:22PM 40.8940 -112.1060 168° South 244 281 11,000  Level FlightAware
05:23PM 40.8460 -112.0960 171° South 237 273 11,000  Level FlightAware
05:23PM 40.8020 -112.0870 171° South 244 281 11,000 -300 Level FlightAware
05:24PM 40.7570 -112.0790 172° South 242 278 10,600 -600 Descending FlightAware
05:24PM 40.7200 -112.0760 176° South 235 270 10,300 -600 Descending FlightAware
05:25PM 40.6880 -112.0730 176° South 239 275 10,000 -480 Descending FlightAware
05:26PM 40.6420 -112.0680 175° South 244 281 9,700 -300 Descending FlightAware
05:26PM 40.6200 -112.0660 176° South 244 281 9,700  Level FlightAware
05:26PM 40.5970 -112.0630 174° South 244 281 9,700 -1,500 Level FlightAware
05:27PM 40.5750 -112.0250 127° Southeast 263 303 8,600 -1,920 Descending FlightAware
05:27PM 40.5930 -111.9840 60° Northeast 269 310 8,100 -1,140 Descending FlightAware
05:27PM 40.6010 -111.9790 25° Northeast 265 305 7,900 -1,320 Descending FlightAware
05:28PM 40.6250 -111.9760 North 254 292 7,500 -900 Descending FlightAware
05:28PM 40.6560 -111.9810 353° North 236 272 7,200 -900 Descending FlightAware
05:29PM 40.6850 -111.9850 354° North 226 260 6,700 -840 Descending FlightAware
05:29PM 40.7080 -111.9880 354° North 202 232 6,500 -1,200 Descending FlightAware
05:29PM 40.7290 -111.9910 354° North 197 227 5,800 -2,280 Descending FlightAware
05:30PM 40.7450 -111.9920 357° North 201 231 5,000 -2,700 Descending FlightAware
05:31PM 40.8000 -111.9980 355° North 29 33 -3,300 Descending FlightAware
05:31PM 40.8010 -111.9980 360° North 23 26  Level FlightAware
05:38PM 40.7884 -111.9778 North  Level Estimated